AGROMETEOROLOŠKI PORTAL
Vinorodna pokrajina

Temelj dobrega kmetovanja.

Pregled podatkov za lokacijo Ilirska Bistrica - Koseze ARSO, meteorološka postaja 104

Pregled senzorjev na lokaciji

ID Ime Zadnja
vrednost
Datum in čas
meritve
(lokalni čas)
Tip
senzorja
2323 Sončno sevanje (W/m2) 138 W/m2 20.4.2024 18:00 ARSO
2329 Padavine (mm) 0 mm 20.4.2024 18:00 ARSO
2317 Relativna zračna vlaga (2 m) (% RH) 46 % RH 20.4.2024 18:00 ARSO
2320 Temperatura tal (5 cm) (°C) 10,8 °C 20.4.2024 18:00 ARSO
2321 Temperatura tal (10 cm) (°C) 10,8 °C 20.4.2024 18:00 ARSO
2322 Temperatura tal (30 cm) (°C) 11,3 °C 20.4.2024 18:00 ARSO
2314 Temperatura (2 m) (°C) 10,5 °C 20.4.2024 18:00 ARSO
2325 Smer vetra (2 m) (°) 143 ° 20.4.2024 18:00 ARSO
2324 Hitrost vetra (2 m) (km/h) 6 km/h 20.4.2024 18:00 ARSO

Pregled podatkov zadnjih 24 ur

Zap.
št.
Datum in čas
(lokalni čas)
Ilirska Bistrica - Koseze ARSO
Sončno
sevanje
Padavine Relativna
zračna
vlaga
(2
m)
Temperatura
tal
(5
cm)
Temperatura
tal
(10
cm)
Temperatura
tal
(30
cm)
Temperatura
(2
m)
Smer
vetra
(2
m)
Hitrost
vetra
(2
m)
1 20.4.2024 18:00 138 0 46 10,8 10,8 11,3 10,5 143 6
2 20.4.2024 17:30 156 0 47 10,8 10,8 11,3 10,5 57 9
3 20.4.2024 17:00 186 0 52 10,7 10,7 11,3 9,9 352 8
4 20.4.2024 16:30 204 0 52 10,6 10,7 11,3 9,9 352 14
5 20.4.2024 16:00 282 0 58 10,5 10,6 11,3 10,3 326 9
6 20.4.2024 15:30 275 0 64 10,5 10,6 11,3 8,9 327 3
7 20.4.2024 15:00 174 0 65 10,4 10,6 11,3 8,2 138 4
8 20.4.2024 14:30 149 0 67 10,3 10,5 11,3 7,8 170 6
9 20.4.2024 14:00 182 0 66 10,3 10,5 11,3 7,4 179 8
10 20.4.2024 13:30 122 0 68 10,3 10,4 11,3 6,7 165 12
11 20.4.2024 13:00 51 0,4 69 10,3 10,3 11,3 6,6 141 13
12 20.4.2024 12:30 55 0,2 53 10,2 10,2 11,4 9,6 26 17
13 20.4.2024 12:00 236 0 50 9,9 10,1 11,4 11,9 200 6
14 20.4.2024 11:30 513 0 52 9,7 10 11,4 11,6 165 4
15 20.4.2024 11:00 327 0 55 9,5 9,9 11,5 9,6 344 2
16 20.4.2024 10:30 265 0 61 9,3 9,9 11,5 8,5 353 3
17 20.4.2024 10:00 532 0 66 9,1 9,9 11,5 7,3 335 4
18 20.4.2024 09:30 405 0 77 9 9,9 11,6 4,5 4 2
19 20.4.2024 09:00 335 0 87 9 9,9 11,6 2,3 321 3
20 20.4.2024 08:30 114 0 92 9 10 11,7 0,7 338 2
21 20.4.2024 08:00 78 0 93 9 10,1 11,7 -0,1 83 1
22 20.4.2024 07:30 77 0 93 9,1 10,1 11,7 -1,1 153 1
23 20.4.2024 07:00 17 0 93 9,2 10,2 11,8 -1,6 154 1
24 20.4.2024 06:30 3 0 93 9,3 10,3 11,8 -1,6 176 2
25 20.4.2024 06:00 0 0 93 9,4 10,4 11,8 -1,8 197 1
26 20.4.2024 05:30 0 0 93 9,5 10,5 11,9 -1,7 190 2
27 20.4.2024 05:00 0 0 92 9,6 10,6 11,9 -1,7 221 2
28 20.4.2024 04:30 0 0 92 9,7 10,7 11,9 -1,4 279 1
29 20.4.2024 04:00 0 0 91 9,9 10,8 12 -1,2 298 3
30 20.4.2024 03:30 0 0 91 10 10,9 12 -0,9 180 2
31 20.4.2024 03:00 0 0 91 10,1 11 12 -0,7 265 2
32 20.4.2024 02:30 0 0 90 10,2 11,1 12 -0,6 103 2
33 20.4.2024 02:00 0 0 90 10,3 11,2 12 -0,3 167 3
34 20.4.2024 01:30 0 0 88 10,5 11,3 12,1 -0,1 208 2
35 20.4.2024 01:00 0 0 87 10,6 11,4 12,1 0 292 3
36 20.4.2024 00:30 0 0 87 10,8 11,5 12,1 0,5 187 3
37 20.4.2024 00:00 0 0 85 10,9 11,6 12,1 0,8 185 3
38 19.4.2024 23:30 0 0 82 11,1 11,8 12,1 1,2 239 1
39 19.4.2024 23:00 0 0 79 11,3 11,9 12,1 1,8 202 2
40 19.4.2024 22:30 0 0 76 11,4 12 12 2,4 169 3
41 19.4.2024 22:00 0 0 72 11,6 12,1 12 3,1 159 4
42 19.4.2024 21:30 0 0 66 11,8 12,2 12 4 185 4
43 19.4.2024 21:00 0 0 58 12 12,2 12 5,1 161 4
44 19.4.2024 20:30 0 0 49 12,1 12,3 12 6,7 168 3
45 19.4.2024 20:00 7 0 36 12,3 12,4 11,9 8,9 301 2